createdAt,value
2018-07-23T00:00:51.721Z,0.00
2018-07-23T00:01:51.656Z,0.00
2018-07-23T00:02:51.631Z,0.00
2018-07-23T00:03:51.575Z,0.00
2018-07-23T00:04:51.546Z,0.00
2018-07-23T00:05:51.490Z,0.00
2018-07-23T00:06:51.443Z,0.00
2018-07-23T00:07:51.399Z,0.00
2018-07-23T00:08:51.341Z,0.00
2018-07-23T00:09:51.307Z,0.00
2018-07-23T00:10:51.271Z,0.00
2018-07-23T00:11:51.197Z,0.00
2018-07-23T00:12:51.162Z,0.00
2018-07-23T00:13:51.113Z,0.00
2018-07-23T00:14:51.064Z,0.00
2018-07-23T00:15:51.026Z,0.00
2018-07-23T00:16:50.975Z,0.00
2018-07-23T00:17:50.924Z,0.00
2018-07-23T00:18:50.921Z,0.00
2018-07-23T00:19:50.846Z,0.00
2018-07-23T00:20:50.768Z,0.00
2018-07-23T00:21:50.751Z,0.00
2018-07-23T00:22:50.703Z,0.00
2018-07-23T00:23:50.659Z,0.00
2018-07-23T00:24:50.591Z,0.00
2018-07-23T00:25:50.569Z,0.00
2018-07-23T00:26:50.508Z,0.00
2018-07-23T00:27:50.476Z,0.00
2018-07-23T00:28:50.418Z,0.00
2018-07-23T00:29:50.375Z,0.00
2018-07-23T00:30:50.329Z,0.00
2018-07-23T00:31:50.284Z,0.00
2018-07-23T00:32:50.235Z,0.00
2018-07-23T00:33:50.210Z,0.00
2018-07-23T00:34:50.147Z,0.00
2018-07-23T00:35:50.093Z,0.00
2018-07-23T00:36:50.052Z,0.00
2018-07-23T00:37:50.003Z,0.00
2018-07-23T00:38:49.957Z,0.00
2018-07-23T00:39:49.904Z,0.00
2018-07-23T00:40:49.872Z,0.00
2018-07-23T00:41:49.810Z,0.00
2018-07-23T00:42:49.774Z,0.00
2018-07-23T00:43:49.733Z,0.00
2018-07-23T00:44:49.674Z,0.00
2018-07-23T00:45:49.630Z,0.00
2018-07-23T00:46:49.582Z,0.00
2018-07-23T00:47:49.547Z,0.00
2018-07-23T00:48:49.487Z,0.00
2018-07-23T00:49:49.421Z,0.00
2018-07-23T00:50:49.401Z,0.00
2018-07-23T00:51:49.361Z,0.00
2018-07-23T00:52:49.309Z,0.00
2018-07-23T00:53:49.265Z,0.00
2018-07-23T00:54:49.191Z,0.00
2018-07-23T00:55:49.149Z,0.00
2018-07-23T00:56:49.130Z,0.00
2018-07-23T00:57:49.053Z,0.00
2018-07-23T00:58:49.035Z,0.00
2018-07-23T00:59:48.977Z,0.00
2018-07-23T01:00:48.939Z,0.00
2018-07-23T01:01:48.867Z,0.00
2018-07-23T01:02:48.847Z,0.00
2018-07-23T01:03:48.799Z,0.00
2018-07-23T01:04:48.755Z,0.00
2018-07-23T01:05:48.694Z,0.00
2018-07-23T01:06:48.659Z,0.00
2018-07-23T01:07:48.625Z,0.00
2018-07-23T01:08:48.551Z,0.00
2018-07-23T01:09:48.540Z,0.00
2018-07-23T01:10:48.474Z,0.00
2018-07-23T01:11:48.435Z,0.00
2018-07-23T01:12:48.387Z,0.00
2018-07-23T01:13:48.338Z,0.00
2018-07-23T01:14:48.287Z,0.00
2018-07-23T01:15:48.245Z,0.00
2018-07-23T01:16:48.204Z,0.00
2018-07-23T01:17:48.160Z,0.00
2018-07-23T01:18:48.107Z,0.00
2018-07-23T01:19:48.073Z,0.00
2018-07-23T01:20:47.999Z,0.00
2018-07-23T01:21:47.974Z,0.00
2018-07-23T01:22:47.918Z,0.00
2018-07-23T01:23:47.868Z,0.00
2018-07-23T01:24:47.825Z,0.00
2018-07-23T01:25:47.785Z,0.00
2018-07-23T01:26:47.732Z,0.00
2018-07-23T01:27:47.692Z,0.00
2018-07-23T01:28:47.659Z,0.00
2018-07-23T01:29:47.583Z,0.00
2018-07-23T01:30:47.550Z,0.00
2018-07-23T01:31:47.479Z,0.00
2018-07-23T01:32:47.433Z,0.00
2018-07-23T01:33:47.413Z,0.00
2018-07-23T01:34:47.358Z,0.00
2018-07-23T01:35:47.311Z,0.00
2018-07-23T01:36:47.269Z,0.00
2018-07-23T01:37:47.233Z,0.00
2018-07-23T01:38:47.175Z,0.00
2018-07-23T01:39:47.131Z,0.00
2018-07-23T01:40:47.081Z,0.00
2018-07-23T01:41:47.036Z,0.00
2018-07-23T01:42:47.001Z,0.00
2018-07-23T01:43:46.953Z,0.00
2018-07-23T01:44:46.908Z,0.00
2018-07-23T01:45:46.860Z,0.00
2018-07-23T01:46:46.814Z,0.00
2018-07-23T01:47:46.767Z,0.00
2018-07-23T01:48:46.710Z,0.00
2018-07-23T01:49:46.662Z,0.00
2018-07-23T01:50:46.616Z,0.00
2018-07-23T01:51:46.572Z,0.00
2018-07-23T01:52:46.533Z,0.00
2018-07-23T01:53:46.477Z,0.00
2018-07-23T01:54:46.436Z,0.00
2018-07-23T01:55:46.407Z,0.00
2018-07-23T01:56:46.348Z,0.00
2018-07-23T01:57:46.304Z,0.00
2018-07-23T01:58:46.246Z,0.00
2018-07-23T01:59:46.208Z,0.00
2018-07-23T02:00:46.163Z,0.00
2018-07-23T02:01:46.116Z,0.00
2018-07-23T02:02:46.062Z,0.00
2018-07-23T02:03:46.018Z,0.00
2018-07-23T02:04:45.951Z,0.00
2018-07-23T02:05:45.927Z,0.00
2018-07-23T02:06:45.883Z,0.00
2018-07-23T02:07:45.832Z,0.00
2018-07-23T02:08:45.792Z,0.00
2018-07-23T02:09:45.741Z,0.00
2018-07-23T02:10:45.705Z,0.00
2018-07-23T02:11:45.643Z,0.00
2018-07-23T02:12:45.605Z,0.00
2018-07-23T02:13:45.555Z,0.00
2018-07-23T02:14:45.526Z,0.00
2018-07-23T02:15:45.472Z,0.00
2018-07-23T02:16:45.415Z,0.00
2018-07-23T02:17:45.375Z,0.00
2018-07-23T02:18:45.334Z,0.00
2018-07-23T02:19:45.286Z,0.00
2018-07-23T02:20:45.251Z,0.00
2018-07-23T02:21:45.194Z,0.00
2018-07-23T02:22:45.147Z,0.00
2018-07-23T02:23:45.088Z,0.00
2018-07-23T02:24:45.043Z,0.00
2018-07-23T02:25:44.977Z,0.00
2018-07-23T02:26:44.956Z,0.00
2018-07-23T02:27:44.908Z,0.00
2018-07-23T02:28:44.858Z,0.00
2018-07-23T02:29:44.822Z,0.00
2018-07-23T02:30:44.763Z,0.00
2018-07-23T02:31:44.717Z,0.00
2018-07-23T02:32:44.680Z,0.00
2018-07-23T02:33:44.631Z,0.00
2018-07-23T02:34:44.591Z,0.00
2018-07-23T02:35:44.539Z,0.00
2018-07-23T02:36:44.495Z,0.00
2018-07-23T02:37:44.445Z,0.00
2018-07-23T02:38:44.409Z,0.00
2018-07-23T02:39:44.348Z,0.00
2018-07-23T02:40:44.303Z,0.00
2018-07-23T02:41:44.265Z,0.00
2018-07-23T02:42:44.213Z,0.00
2018-07-23T02:43:44.173Z,0.00
2018-07-23T02:44:44.124Z,0.00
2018-07-23T02:45:44.085Z,0.00
2018-07-23T02:46:44.037Z,0.00
2018-07-23T02:47:43.977Z,0.00
2018-07-23T02:48:43.931Z,0.00
2018-07-23T02:49:43.910Z,0.00
2018-07-23T02:50:43.836Z,0.00
2018-07-23T02:51:43.798Z,0.00
2018-07-23T02:52:43.756Z,0.00
2018-07-23T02:53:43.699Z,0.00
2018-07-23T02:54:43.644Z,0.00
2018-07-23T02:55:43.606Z,0.00
2018-07-23T02:56:43.565Z,0.00
2018-07-23T02:57:43.520Z,0.00
2018-07-23T02:58:43.474Z,0.00
2018-07-23T02:59:43.506Z,0.00
2018-07-23T03:00:43.365Z,0.00
2018-07-23T03:01:43.341Z,0.00
2018-07-23T03:02:43.296Z,0.00
2018-07-23T03:03:43.239Z,0.00
2018-07-23T03:04:43.191Z,0.00
2018-07-23T03:05:43.151Z,0.00
2018-07-23T03:06:43.104Z,0.00
2018-07-23T03:07:43.052Z,0.00
2018-07-23T03:08:43.009Z,0.00
2018-07-23T03:09:42.967Z,0.00
2018-07-23T03:10:42.919Z,0.00
2018-07-23T03:11:42.878Z,0.00
2018-07-23T03:12:42.842Z,0.00
2018-07-23T03:13:42.815Z,0.00
2018-07-23T03:14:42.730Z,0.00
2018-07-23T03:15:42.674Z,0.00
2018-07-23T03:16:42.644Z,0.00
2018-07-23T03:17:42.602Z,0.00
2018-07-23T03:18:42.563Z,0.00
2018-07-23T03:19:42.508Z,0.00
2018-07-23T03:20:42.452Z,0.00
2018-07-23T03:21:42.505Z,0.00
2018-07-23T03:22:42.368Z,0.00
2018-07-23T03:23:42.310Z,0.00
2018-07-23T03:24:42.260Z,0.00
2018-07-23T03:25:42.228Z,0.00
2018-07-23T03:26:42.189Z,0.00
2018-07-23T03:27:42.131Z,0.00
2018-07-23T03:28:42.084Z,0.00
2018-07-23T03:29:42.048Z,0.00
2018-07-23T03:30:41.990Z,0.00
2018-07-23T03:31:41.937Z,0.00
2018-07-23T03:32:41.899Z,0.00
2018-07-23T03:33:41.865Z,0.00
2018-07-23T03:34:41.792Z,0.00
2018-07-23T03:35:41.749Z,0.00
2018-07-23T03:36:41.712Z,0.00
2018-07-23T03:37:41.666Z,0.00
2018-07-23T03:38:41.626Z,0.00
2018-07-23T03:39:41.566Z,0.00
2018-07-23T03:40:41.519Z,0.00
2018-07-23T03:41:41.480Z,0.00
2018-07-23T03:42:41.429Z,0.00
2018-07-23T03:43:41.360Z,0.00
2018-07-23T03:44:41.340Z,0.00
2018-07-23T03:45:41.295Z,0.00
2018-07-23T03:46:41.247Z,0.00
2018-07-23T03:47:41.207Z,0.00
2018-07-23T03:48:41.146Z,0.00
2018-07-23T03:49:41.114Z,0.00
2018-07-23T03:50:41.057Z,0.00
2018-07-23T03:51:41.007Z,0.00
2018-07-23T03:52:40.971Z,0.00
2018-07-23T03:53:40.921Z,0.00
2018-07-23T03:54:40.877Z,0.00
2018-07-23T03:55:40.829Z,0.00
2018-07-23T03:56:40.760Z,0.00
2018-07-23T03:57:40.737Z,0.00
2018-07-23T03:58:40.686Z,0.00
2018-07-23T03:59:40.643Z,0.00
2018-07-23T04:00:40.588Z,0.00
2018-07-23T04:01:40.551Z,0.00
2018-07-23T04:02:40.503Z,0.00
2018-07-23T04:03:40.437Z,0.00
2018-07-23T04:04:40.407Z,0.00
2018-07-23T04:05:40.355Z,0.00
2018-07-23T04:06:40.308Z,0.00
2018-07-23T04:07:40.272Z,0.00
2018-07-23T04:08:40.227Z,0.00
2018-07-23T04:09:40.170Z,0.00
2018-07-23T04:10:40.148Z,0.00
2018-07-23T04:11:40.084Z,0.00
2018-07-23T04:12:40.043Z,0.00
2018-07-23T04:13:39.985Z,0.00
2018-07-23T04:14:39.924Z,0.00
2018-07-23T04:15:39.875Z,0.00
2018-07-23T04:16:39.859Z,0.00
2018-07-23T04:17:39.787Z,0.00
2018-07-23T04:18:39.769Z,0.00
2018-07-23T04:19:39.707Z,0.00
2018-07-23T04:20:39.676Z,0.00
2018-07-23T04:21:39.618Z,0.00
2018-07-23T04:22:39.573Z,0.00
2018-07-23T04:23:39.516Z,0.00
2018-07-23T04:24:39.478Z,0.00
2018-07-23T04:25:39.429Z,0.00
2018-07-23T04:26:39.385Z,0.00
2018-07-23T04:27:39.330Z,0.00
2018-07-23T04:28:39.285Z,0.00
2018-07-23T04:29:39.236Z,0.00
2018-07-23T04:30:39.188Z,0.00
2018-07-23T04:31:39.145Z,0.00
2018-07-23T04:32:39.117Z,0.00
2018-07-23T04:33:39.054Z,0.00
2018-07-23T04:34:39.014Z,0.00
2018-07-23T04:35:38.945Z,0.00
2018-07-23T04:36:38.930Z,0.00
2018-07-23T04:37:38.874Z,0.00
2018-07-23T04:38:38.817Z,0.00
2018-07-23T04:39:38.783Z,0.00
2018-07-23T04:40:38.746Z,0.00
2018-07-23T04:41:38.686Z,0.00
2018-07-23T04:42:38.643Z,0.00
2018-07-23T04:43:38.592Z,0.00
2018-07-23T04:44:38.544Z,0.00
2018-07-23T04:45:38.492Z,0.00
2018-07-23T04:46:38.459Z,0.00
2018-07-23T04:47:38.395Z,0.00
2018-07-23T04:48:38.360Z,0.00
2018-07-23T04:49:38.313Z,0.00
2018-07-23T04:50:38.322Z,0.00
2018-07-23T04:51:38.222Z,0.00
2018-07-23T04:52:38.164Z,0.00
2018-07-23T04:53:38.121Z,0.00
2018-07-23T04:54:38.084Z,0.00
2018-07-23T04:55:38.034Z,0.00
2018-07-23T04:56:38.056Z,0.00
2018-07-23T04:57:37.940Z,0.00
2018-07-23T04:58:37.886Z,0.00
2018-07-23T04:59:37.846Z,0.00
2018-07-23T05:00:37.790Z,0.00
2018-07-23T05:01:37.756Z,0.00
2018-07-23T05:02:37.699Z,0.00
2018-07-23T05:03:37.656Z,0.00
2018-07-23T05:04:37.588Z,0.00
2018-07-23T05:05:37.567Z,0.00
2018-07-23T05:06:37.512Z,0.00
2018-07-23T05:07:37.474Z,0.00
2018-07-23T05:08:37.467Z,0.00
2018-07-23T05:09:37.381Z,0.00
2018-07-23T05:10:37.335Z,0.00
2018-07-23T05:11:37.292Z,0.00
2018-07-23T05:12:37.257Z,0.00
2018-07-23T05:13:37.195Z,0.00
2018-07-23T05:14:37.147Z,0.00
2018-07-23T05:15:37.090Z,0.00
2018-07-23T05:16:37.034Z,0.00
2018-07-23T05:17:37.007Z,0.00
2018-07-23T05:18:37.008Z,0.00
2018-07-23T05:19:36.915Z,0.00
2018-07-23T05:20:36.870Z,0.00
2018-07-23T05:21:36.824Z,0.00
2018-07-23T05:22:36.775Z,0.00
2018-07-23T05:23:36.711Z,0.00
2018-07-23T05:24:36.790Z,0.00
2018-07-23T05:25:36.625Z,0.00
2018-07-23T05:26:36.579Z,0.00
2018-07-23T05:27:36.542Z,0.00
2018-07-23T05:28:36.487Z,0.00
2018-07-23T05:29:36.464Z,0.00
2018-07-23T05:30:36.386Z,0.00
2018-07-23T05:31:36.356Z,0.00
2018-07-23T05:32:36.295Z,0.00
2018-07-23T05:33:36.253Z,0.00
2018-07-23T05:34:36.221Z,0.00
2018-07-23T05:35:36.162Z,0.00
2018-07-23T05:36:36.123Z,0.00
2018-07-23T05:37:36.067Z,0.00
2018-07-23T05:38:36.068Z,0.00
2018-07-23T05:39:35.973Z,0.00
2018-07-23T05:40:35.934Z,0.00
2018-07-23T05:41:35.888Z,0.00
2018-07-23T05:42:35.833Z,0.00
2018-07-23T05:43:35.797Z,0.00
2018-07-23T05:44:35.765Z,0.00
2018-07-23T05:45:35.708Z,0.00
2018-07-23T05:46:35.647Z,0.00
2018-07-23T05:47:35.600Z,0.00
2018-07-23T05:48:35.548Z,0.00
2018-07-23T05:49:35.518Z,0.00
2018-07-23T05:50:35.479Z,0.00
2018-07-23T05:51:35.423Z,0.00
2018-07-23T05:52:35.349Z,0.00
2018-07-23T05:53:35.333Z,0.00
2018-07-23T05:54:35.275Z,0.00
2018-07-23T05:55:35.221Z,0.00
2018-07-23T05:56:35.193Z,0.00
2018-07-23T05:57:35.175Z,0.00
2018-07-23T05:58:35.109Z,0.00
2018-07-23T05:59:35.080Z,0.00
2018-07-23T06:00:35.018Z,0.00
2018-07-23T06:01:34.950Z,0.00
2018-07-23T06:02:34.904Z,0.00
2018-07-23T06:03:34.878Z,0.00
2018-07-23T06:04:34.819Z,0.00
2018-07-23T06:05:34.785Z,0.00
2018-07-23T06:06:34.735Z,0.00
2018-07-23T06:07:34.679Z,0.00
2018-07-23T06:08:34.632Z,0.00
2018-07-23T06:09:34.577Z,0.00
2018-07-23T06:10:34.534Z,0.00
2018-07-23T06:11:34.486Z,0.00
2018-07-23T06:12:34.435Z,0.00
2018-07-23T06:13:34.467Z,0.00
2018-07-23T06:14:34.344Z,0.00
2018-07-23T06:15:34.304Z,0.00
2018-07-23T06:16:34.265Z,0.00
2018-07-23T06:17:34.207Z,0.00
2018-07-23T06:18:34.161Z,0.00
2018-07-23T06:19:34.109Z,0.00
2018-07-23T06:20:34.065Z,0.00
2018-07-23T06:21:34.028Z,0.00
2018-07-23T06:22:33.996Z,0.00
2018-07-23T06:23:33.926Z,0.00
2018-07-23T06:24:33.886Z,0.00
2018-07-23T06:25:33.820Z,0.00
2018-07-23T06:26:33.783Z,0.00
2018-07-23T06:27:33.745Z,0.00
2018-07-23T06:28:33.700Z,0.00
2018-07-23T06:29:33.647Z,0.00
2018-07-23T06:30:33.588Z,0.00
2018-07-23T06:31:33.533Z,0.00
2018-07-23T06:32:33.515Z,0.00
2018-07-23T06:33:33.458Z,0.00
2018-07-23T06:34:33.420Z,0.00
2018-07-23T06:35:33.374Z,0.00
2018-07-23T06:36:33.331Z,0.00
2018-07-23T06:37:33.316Z,0.00
2018-07-23T06:38:33.233Z,0.00
2018-07-23T06:39:33.177Z,0.00
2018-07-23T06:40:33.123Z,0.00
2018-07-23T06:41:33.084Z,0.00
2018-07-23T06:42:33.044Z,0.00
2018-07-23T06:43:32.991Z,0.00
2018-07-23T06:44:32.947Z,0.00
2018-07-23T06:45:32.880Z,0.00
2018-07-23T06:46:32.871Z,0.00
2018-07-23T06:47:32.806Z,0.00
2018-07-23T06:48:32.768Z,0.00
2018-07-23T06:49:32.736Z,0.00
2018-07-23T06:50:32.685Z,0.00
2018-07-23T06:51:32.621Z,0.00
2018-07-23T06:52:32.573Z,0.00
2018-07-23T06:53:32.529Z,0.00
2018-07-23T06:54:32.484Z,0.00
2018-07-23T06:55:32.442Z,0.00
2018-07-23T06:56:32.383Z,0.00
2018-07-23T06:57:32.426Z,0.00
2018-07-23T06:58:32.304Z,0.00
2018-07-23T06:59:32.259Z,0.00
2018-07-23T07:00:32.266Z,0.00
2018-07-23T07:01:32.143Z,0.00
2018-07-23T07:02:32.105Z,0.00
2018-07-23T07:03:32.051Z,0.00
2018-07-23T07:04:32.022Z,0.00
2018-07-23T07:05:31.977Z,0.00
2018-07-23T07:06:31.931Z,0.00
2018-07-23T07:07:31.869Z,0.00
2018-07-23T07:08:31.824Z,0.00
2018-07-23T07:09:31.784Z,0.00
2018-07-23T07:10:31.739Z,0.00
2018-07-23T07:11:31.692Z,0.00
2018-07-23T07:12:31.649Z,0.00
2018-07-23T07:13:31.614Z,0.00
2018-07-23T07:14:31.554Z,0.00
2018-07-23T07:15:31.513Z,0.00
2018-07-23T07:16:31.448Z,0.00
2018-07-23T07:17:31.404Z,0.00
2018-07-23T07:18:31.366Z,0.00
2018-07-23T07:19:31.292Z,0.00
2018-07-23T07:20:31.255Z,0.00
2018-07-23T07:21:31.225Z,0.00
2018-07-23T07:22:31.179Z,0.00
2018-07-23T07:23:31.130Z,0.00
2018-07-23T07:24:31.083Z,0.00
2018-07-23T07:25:31.034Z,0.00
2018-07-23T07:26:30.991Z,0.00
2018-07-23T07:27:30.938Z,0.00
2018-07-23T07:28:30.894Z,0.00
2018-07-23T07:29:30.856Z,0.00
2018-07-23T07:30:30.796Z,0.00
2018-07-23T07:31:30.753Z,0.00
2018-07-23T07:32:30.714Z,0.00
2018-07-23T07:33:30.664Z,0.00
2018-07-23T07:34:30.616Z,0.00
2018-07-23T07:35:30.551Z,0.00
2018-07-23T07:36:30.523Z,0.00
2018-07-23T07:37:30.478Z,0.00
2018-07-23T07:38:30.429Z,0.00
2018-07-23T07:39:30.382Z,0.00
2018-07-23T07:40:30.330Z,0.00
2018-07-23T07:41:30.289Z,0.00
2018-07-23T07:42:30.237Z,0.00
2018-07-23T07:43:30.177Z,0.00
2018-07-23T07:44:30.162Z,0.00
2018-07-23T07:45:30.090Z,0.00
2018-07-23T07:46:30.067Z,0.00
2018-07-23T07:47:30.010Z,0.00
2018-07-23T07:48:29.953Z,0.00
2018-07-23T07:49:29.909Z,0.00
2018-07-23T07:50:29.859Z,0.00
2018-07-23T07:51:29.818Z,0.00
2018-07-23T07:52:29.749Z,0.00
2018-07-23T07:53:29.729Z,0.00
2018-07-23T07:54:29.685Z,0.00
2018-07-23T07:55:29.612Z,0.00
2018-07-23T07:56:29.587Z,0.00
2018-07-23T07:57:29.525Z,0.00
2018-07-23T07:58:29.483Z,0.00
2018-07-23T07:59:29.446Z,0.00
2018-07-23T08:00:29.400Z,0.00
2018-07-23T08:01:29.353Z,0.00
2018-07-23T08:02:29.306Z,0.00
2018-07-23T08:03:29.258Z,0.00
2018-07-23T08:04:29.217Z,0.00
2018-07-23T08:05:29.155Z,0.00
2018-07-23T08:06:29.119Z,0.00
2018-07-23T08:07:29.064Z,0.00
2018-07-23T08:08:29.040Z,0.00
2018-07-23T08:09:28.979Z,0.00
2018-07-23T08:10:28.905Z,0.00
2018-07-23T08:11:28.901Z,0.00
2018-07-23T08:12:28.850Z,0.00
2018-07-23T08:13:28.793Z,0.00
2018-07-23T08:14:28.741Z,0.00
2018-07-23T08:15:28.692Z,0.00
2018-07-23T08:16:28.656Z,0.00
2018-07-23T08:17:28.606Z,0.00
2018-07-23T08:18:28.559Z,0.00
2018-07-23T08:19:28.508Z,0.00
2018-07-23T08:20:28.470Z,0.00
2018-07-23T08:21:28.429Z,0.00
2018-07-23T08:22:28.374Z,0.00
2018-07-23T08:23:28.317Z,0.00
2018-07-23T08:24:28.285Z,0.00
2018-07-23T08:25:28.215Z,0.00
2018-07-23T08:26:28.186Z,0.00
2018-07-23T08:27:28.135Z,0.00
2018-07-23T08:28:28.084Z,0.00
2018-07-23T08:29:28.028Z,0.00
2018-07-23T08:30:28.014Z,0.00
2018-07-23T08:31:27.956Z,0.00
2018-07-23T08:32:28.012Z,0.00
2018-07-23T08:33:27.852Z,0.00
2018-07-23T08:34:27.810Z,0.00
2018-07-23T08:35:27.759Z,0.00
2018-07-23T08:36:27.711Z,0.00
2018-07-23T08:37:27.671Z,0.00
2018-07-23T08:38:27.624Z,0.00
2018-07-23T08:39:27.587Z,0.00
2018-07-23T08:40:27.526Z,0.00
2018-07-23T08:41:27.477Z,0.00
2018-07-23T08:42:27.453Z,0.00
2018-07-23T08:43:27.393Z,0.00
2018-07-23T08:44:27.344Z,0.00
2018-07-23T08:45:27.289Z,0.00
2018-07-23T08:46:27.266Z,0.00
2018-07-23T08:47:27.204Z,0.00
2018-07-23T08:48:27.200Z,0.00
2018-07-23T08:49:27.111Z,0.00
2018-07-23T08:50:27.057Z,0.00
2018-07-23T08:51:27.094Z,0.00
2018-07-23T08:52:26.977Z,0.00
2018-07-23T08:53:26.941Z,0.00
2018-07-23T08:54:26.876Z,0.00
2018-07-23T08:55:26.828Z,0.00
2018-07-23T08:56:26.795Z,0.00
2018-07-23T08:57:26.823Z,0.00
2018-07-23T08:58:26.690Z,0.00
2018-07-23T08:59:26.642Z,0.00
2018-07-23T09:00:26.606Z,0.00
2018-07-23T09:01:26.527Z,0.00
2018-07-23T09:02:26.574Z,0.00
2018-07-23T09:03:26.458Z,0.00
2018-07-23T09:04:26.391Z,0.00
2018-07-23T09:05:26.367Z,0.00
2018-07-23T09:06:26.304Z,0.00
2018-07-23T09:07:26.265Z,0.00
2018-07-23T09:08:26.253Z,0.00
2018-07-23T09:09:26.171Z,0.00
2018-07-23T09:10:26.117Z,0.00
2018-07-23T09:11:26.086Z,0.00
2018-07-23T09:12:26.036Z,0.00
2018-07-23T09:13:25.991Z,0.00
2018-07-23T09:14:25.947Z,0.00
2018-07-23T09:15:25.900Z,0.00
2018-07-23T09:16:25.868Z,0.00
2018-07-23T09:17:25.812Z,0.00
2018-07-23T09:18:25.752Z,0.00
2018-07-23T09:19:25.717Z,0.00
2018-07-23T09:20:25.675Z,0.00
2018-07-23T09:21:25.626Z,0.00
2018-07-23T09:22:25.578Z,0.00
2018-07-23T09:23:25.528Z,0.00
2018-07-23T09:24:25.477Z,0.00
2018-07-23T09:25:25.433Z,0.00
2018-07-23T09:26:25.390Z,0.00
2018-07-23T09:27:25.332Z,0.00
2018-07-23T09:28:25.312Z,0.00
2018-07-23T09:29:25.239Z,0.00
2018-07-23T09:30:25.201Z,0.00
2018-07-23T09:31:25.150Z,0.00
2018-07-23T09:32:25.107Z,0.00
2018-07-23T09:33:25.072Z,0.00
2018-07-23T09:34:25.016Z,0.00
2018-07-23T09:35:24.960Z,0.00
2018-07-23T09:36:24.893Z,0.00
2018-07-23T09:37:24.885Z,0.00
2018-07-23T09:38:24.832Z,0.00
2018-07-23T09:39:24.775Z,0.00
2018-07-23T09:40:24.736Z,0.00
2018-07-23T09:41:24.692Z,0.00
2018-07-23T09:42:24.639Z,0.00
2018-07-23T09:43:24.597Z,0.00
2018-07-23T09:44:24.554Z,0.00
2018-07-23T09:45:24.502Z,0.00
2018-07-23T09:46:24.450Z,0.00
2018-07-23T09:47:24.393Z,0.00
2018-07-23T09:48:24.354Z,0.00
2018-07-23T09:49:24.321Z,0.00
2018-07-23T09:50:24.272Z,0.00
2018-07-23T09:51:24.213Z,0.00
2018-07-23T09:52:24.174Z,0.00
2018-07-23T09:53:24.126Z,0.00
2018-07-23T09:54:24.073Z,0.00
2018-07-23T09:55:24.034Z,0.00
2018-07-23T09:56:24.001Z,0.00
2018-07-23T09:57:23.942Z,5.63
2018-07-23T09:58:23.888Z,5.63
2018-07-23T09:59:23.825Z,5.63
2018-07-23T10:00:23.792Z,5.63
2018-07-23T10:01:23.746Z,5.63
2018-07-23T10:02:23.709Z,5.63
2018-07-23T10:03:23.673Z,5.63
2018-07-23T10:04:23.610Z,5.63
2018-07-23T10:05:23.547Z,5.63
2018-07-23T10:06:23.502Z,5.63
2018-07-23T10:07:23.471Z,5.63
2018-07-23T10:08:23.424Z,11.25
2018-07-23T10:09:23.360Z,11.25
2018-07-23T10:10:23.332Z,11.25
2018-07-23T10:11:23.286Z,11.25
2018-07-23T10:12:23.241Z,11.25
2018-07-23T10:13:23.192Z,16.88
2018-07-23T10:14:23.122Z,16.88
2018-07-23T10:15:23.089Z,16.88
2018-07-23T10:16:23.054Z,16.88
2018-07-23T10:17:22.976Z,16.88
2018-07-23T10:18:22.944Z,16.88
2018-07-23T10:19:22.895Z,16.88
2018-07-23T10:20:22.864Z,22.50
2018-07-23T10:21:22.819Z,22.50
2018-07-23T10:22:22.758Z,22.50
2018-07-23T10:23:22.717Z,28.13
2018-07-23T10:24:22.690Z,28.13
2018-07-23T10:25:22.616Z,28.13
2018-07-23T10:26:22.587Z,28.13
2018-07-23T10:27:22.540Z,33.75
2018-07-23T10:28:22.492Z,39.38
2018-07-23T10:29:22.466Z,39.38
2018-07-23T10:30:22.401Z,39.38
2018-07-23T10:31:22.353Z,39.38
2018-07-23T10:32:22.338Z,39.38
2018-07-23T10:33:22.261Z,39.38
2018-07-23T10:34:22.224Z,39.38
2018-07-23T10:35:22.166Z,39.38
2018-07-23T10:36:22.134Z,45.00
2018-07-23T10:37:22.069Z,45.00
2018-07-23T10:38:22.034Z,50.63
2018-07-23T10:39:21.973Z,56.25
2018-07-23T10:40:21.927Z,67.50
2018-07-23T10:41:21.883Z,90.00
2018-07-23T10:42:21.853Z,106.88
2018-07-23T10:43:21.806Z,106.88
2018-07-23T10:44:21.758Z,112.50
2018-07-23T10:45:21.702Z,112.50
2018-07-23T10:46:21.642Z,118.13
2018-07-23T10:47:21.592Z,129.38
2018-07-23T10:48:21.586Z,135.00
2018-07-23T10:49:21.521Z,140.63
2018-07-23T10:50:21.474Z,151.88
2018-07-23T10:51:21.436Z,157.50
2018-07-23T10:52:21.402Z,180.00
2018-07-23T10:53:21.333Z,196.88
2018-07-23T10:54:21.285Z,191.25
2018-07-23T10:55:21.246Z,157.50
2018-07-23T10:56:21.218Z,191.25
2018-07-23T10:57:21.161Z,298.13
2018-07-23T10:58:21.086Z,337.50
2018-07-23T10:59:21.065Z,331.88
2018-07-23T11:00:21.018Z,337.50
2018-07-23T11:01:20.976Z,376.88
2018-07-23T11:02:20.931Z,399.38
2018-07-23T11:03:20.878Z,427.50
2018-07-23T11:04:20.903Z,461.25
2018-07-23T11:05:20.782Z,528.75
2018-07-23T11:06:20.758Z,483.75
2018-07-23T11:07:20.754Z,517.50
2018-07-23T11:08:20.673Z,528.75
2018-07-23T11:09:20.631Z,506.25
2018-07-23T11:10:20.594Z,478.13
2018-07-23T11:11:20.544Z,416.25
2018-07-23T11:12:20.512Z,489.38
2018-07-23T11:13:20.448Z,466.88
2018-07-23T11:14:20.408Z,450.00
2018-07-23T11:15:20.364Z,450.00
2018-07-23T11:16:20.335Z,427.50
2018-07-23T11:17:20.789Z,416.25
2018-07-23T11:18:20.259Z,405.00
2018-07-23T11:19:20.286Z,298.13
2018-07-23T11:20:20.172Z,196.88
2018-07-23T11:21:20.130Z,185.63
2018-07-23T11:22:20.115Z,180.00
2018-07-23T11:23:20.017Z,174.38
2018-07-23T11:24:19.990Z,174.38
2018-07-23T11:25:38.978Z,180.00
2018-07-23T11:26:19.913Z,185.63
2018-07-23T11:27:19.861Z,191.25
2018-07-23T11:28:19.817Z,196.88
2018-07-23T11:29:19.772Z,191.25
2018-07-23T11:30:19.746Z,185.63
2018-07-23T11:31:19.693Z,180.00
2018-07-23T11:32:19.642Z,185.63
2018-07-23T11:33:19.738Z,180.00
2018-07-23T11:34:19.550Z,174.38
2018-07-23T11:35:19.525Z,180.00
2018-07-23T11:36:19.472Z,180.00
2018-07-23T11:37:19.430Z,180.00
2018-07-23T11:38:19.369Z,174.38
2018-07-23T11:39:19.328Z,174.38
2018-07-23T11:40:19.296Z,174.38
2018-07-23T11:41:19.239Z,174.38
2018-07-23T11:42:19.197Z,174.38
2018-07-23T11:43:19.155Z,174.38
2018-07-23T11:44:19.119Z,174.38
2018-07-23T11:45:19.127Z,174.38
2018-07-23T11:46:24.981Z,168.75
2018-07-23T11:47:18.986Z,163.13
2018-07-23T11:48:18.929Z,157.50
2018-07-23T11:49:18.894Z,151.88
2018-07-23T11:50:18.843Z,146.25
2018-07-23T11:51:18.804Z,151.88
2018-07-23T11:52:18.764Z,146.25
2018-07-23T11:53:18.727Z,151.88
2018-07-23T11:54:18.663Z,151.88
2018-07-23T11:55:18.659Z,151.88
2018-07-23T11:56:18.578Z,157.50
2018-07-23T11:57:18.521Z,157.50
2018-07-23T11:58:18.503Z,163.13
2018-07-23T11:59:18.453Z,168.75
2018-07-23T12:00:18.406Z,168.75
2018-07-23T12:01:18.365Z,168.75
2018-07-23T12:02:18.306Z,168.75
2018-07-23T12:03:18.273Z,168.75
2018-07-23T12:04:18.307Z,168.75
2018-07-23T12:05:18.182Z,163.13
2018-07-23T12:06:18.153Z,163.13
2018-07-23T12:07:18.093Z,163.13
2018-07-23T12:08:18.042Z,163.13
2018-07-23T12:09:18.001Z,163.13
2018-07-23T12:10:17.945Z,157.50
2018-07-23T12:11:17.892Z,157.50
2018-07-23T12:12:17.862Z,157.50
2018-07-23T12:13:17.820Z,157.50
2018-07-23T12:14:17.786Z,157.50
2018-07-23T12:15:17.744Z,157.50
2018-07-23T12:16:17.676Z,157.50
2018-07-23T12:17:17.645Z,157.50
2018-07-23T12:18:17.631Z,157.50
2018-07-23T12:19:17.560Z,157.50
2018-07-23T12:20:17.509Z,157.50
2018-07-23T12:21:17.468Z,157.50
2018-07-23T12:22:17.424Z,157.50
2018-07-23T12:23:17.381Z,157.50
2018-07-23T12:24:17.343Z,157.50
2018-07-23T12:25:17.299Z,140.63
2018-07-23T12:26:17.234Z,151.88
2018-07-23T12:27:17.209Z,151.88
2018-07-23T12:28:17.172Z,151.88
2018-07-23T12:29:17.123Z,135.00
2018-07-23T12:30:17.086Z,135.00
2018-07-23T12:31:17.028Z,135.00
2018-07-23T12:32:16.974Z,135.00
2018-07-23T12:33:16.947Z,135.00
2018-07-23T12:34:16.899Z,135.00
2018-07-23T12:35:16.847Z,118.13
2018-07-23T12:36:16.798Z,118.13
2018-07-23T12:37:16.767Z,118.13
2018-07-23T12:38:16.719Z,118.13
2018-07-23T12:39:16.716Z,123.75
2018-07-23T12:40:16.633Z,129.38
2018-07-23T12:41:16.594Z,135.00
2018-07-23T12:42:16.544Z,135.00
2018-07-23T12:43:16.487Z,140.63
2018-07-23T12:44:16.458Z,140.63
2018-07-23T12:45:16.388Z,140.63
2018-07-23T12:46:16.369Z,140.63
2018-07-23T12:47:16.356Z,135.00
2018-07-23T12:48:16.269Z,135.00
2018-07-23T12:49:16.224Z,140.63
2018-07-23T12:50:16.186Z,135.00
2018-07-23T12:51:16.116Z,140.63
2018-07-23T12:52:16.089Z,140.63
2018-07-23T12:53:16.053Z,146.25
2018-07-23T12:54:16.011Z,140.63
2018-07-23T12:55:15.957Z,140.63
2018-07-23T12:56:15.915Z,146.25
2018-07-23T12:57:15.877Z,146.25
2018-07-23T12:58:15.842Z,140.63
2018-07-23T12:59:15.793Z,146.25
2018-07-23T13:00:15.752Z,140.63
2018-07-23T13:01:15.699Z,140.63
2018-07-23T13:02:15.649Z,140.63
2018-07-23T13:03:15.590Z,140.63
2018-07-23T13:04:15.570Z,146.25
2018-07-23T13:05:15.540Z,146.25
2018-07-23T13:06:15.474Z,140.63
2018-07-23T13:07:15.434Z,146.25